Time;durP1;ratioP1;P1;durP2;ratioP2;P2;SDS_P1;SDS_P2;PMS_P1;PMS_P2;Temp;Humidity;BMP_temperature;BMP_pressure;BME280_temperature;BME280_humidity;BME280_pressure;Samples;Min_cycle;Max_cycle;Signal;HPM_P1;HPM_P2
2023/07/22 00:02:13;;;;;;;12.68;7.90;;;;;;;;;;5012292;28;20129;-70
2023/07/22 00:04:39;;;;;;;12.35;8.30;;;;;;;;;;4994676;28;20033;-69
2023/07/22 00:07:05;;;;;;;11.88;8.40;;;;;;;;;;5011617;28;20021;-69
2023/07/22 00:09:34;;;;;;;11.50;7.18;;;;;;;;;;5011660;28;20056;-70
2023/07/22 00:12:00;;;;;;;13.05;7.75;;;;;;;;;;5012030;28;20113;-70
2023/07/22 00:14:27;;;;;;;13.65;8.45;;;;;;;;;;4994428;28;20026;-69
2023/07/22 00:16:53;;;;;;;13.15;8.40;;;;;;;;;;5011836;28;20423;-69
2023/07/22 00:19:19;;;;;;;12.23;8.52;;;;;;;;;;4994057;28;20096;-69
2023/07/22 00:21:45;;;;;;;12.90;8.25;;;;;;;;;;4994211;28;20026;-70
2023/07/22 00:24:11;;;;;;;12.23;8.07;;;;;;;;;;5012012;28;20506;-70
2023/07/22 00:26:37;;;;;;;13.15;8.88;;;;;;;;;;5011853;28;20041;-70
2023/07/22 00:29:05;;;;;;;11.30;7.32;;;;;;;;;;5010759;28;20080;-70
2023/07/22 00:31:31;;;;;;;14.13;8.65;;;;;;;;;;5011643;28;20045;-70
2023/07/22 00:33:57;;;;;;;13.90;8.05;;;;;;;;;;5011464;28;20084;-70
2023/07/22 00:36:23;;;;;;;12.35;8.48;;;;;;;;;;5012576;28;20033;-70
2023/07/22 00:38:49;;;;;;;13.93;8.98;;;;;;;;;;5012096;28;20022;-70
2023/07/22 00:41:15;;;;;;;13.35;9.65;;;;;;;;;;5010784;28;20107;-70
2023/07/22 00:43:41;;;;;;;15.85;8.70;;;;;;;;;;5011839;28;20026;-70
2023/07/22 00:46:07;;;;;;;15.63;9.60;;;;;;;;;;5010985;28;20058;-70
2023/07/22 00:48:33;;;;;;;14.10;9.45;;;;;;;;;;5011313;28;20056;-70
2023/07/22 00:50:59;;;;;;;13.90;8.15;;;;;;;;;;5011286;28;20064;-70
2023/07/22 00:53:25;;;;;;;12.77;8.70;;;;;;;;;;5010934;28;20061;-70
2023/07/22 00:55:51;;;;;;;16.00;9.82;;;;;;;;;;5011159;28;20514;-70
2023/07/22 00:58:17;;;;;;;16.05;10.02;;;;;;;;;;5011350;28;20121;-70
2023/07/22 01:00:43;;;;;;;15.90;8.73;;;;;;;;;;5011373;28;20034;-70
2023/07/22 01:03:09;;;;;;;14.02;9.73;;;;;;;;;;5010787;28;20025;-71
2023/07/22 01:05:36;;;;;;;17.73;10.60;;;;;;;;;;5010944;28;20033;-70
2023/07/22 01:08:03;;;;;;;18.10;10.38;;;;;;;;;;4993262;28;20488;-70
2023/07/22 01:10:29;;;;;;;17.30;10.45;;;;;;;;;;5010455;28;20108;-70
2023/07/22 01:12:56;;;;;;;15.00;10.75;;;;;;;;;;5010245;28;20654;-69
2023/07/22 01:15:23;;;;;;;17.05;10.25;;;;;;;;;;5010598;28;20333;-70
2023/07/22 01:17:50;;;;;;;13.82;9.65;;;;;;;;;;5010669;28;20034;-70
2023/07/22 01:20:18;;;;;;;15.98;9.90;;;;;;;;;;5010478;28;20033;-70
2023/07/22 01:22:51;;;;;;;19.30;11.05;;;;;;;;;;5011288;28;20099;-70
2023/07/22 01:25:17;;;;;;;16.48;10.85;;;;;;;;;;5010084;28;20037;-70
2023/07/22 01:27:44;;;;;;;18.30;10.85;;;;;;;;;;5010890;28;20030;-70
2023/07/22 01:30:10;;;;;;;14.57;10.18;;;;;;;;;;5010082;28;20113;-69
2023/07/22 01:32:36;;;;;;;16.20;10.30;;;;;;;;;;5010476;28;20494;-70
2023/07/22 01:35:02;;;;;;;16.67;11.70;;;;;;;;;;5010600;28;20101;-69
2023/07/22 01:37:28;;;;;;;16.77;11.38;;;;;;;;;;5009981;28;20053;-69
2023/07/22 01:39:56;;;;;;;18.92;12.20;;;;;;;;;;4992455;28;20022;-69
2023/07/22 01:42:23;;;;;;;20.25;13.02;;;;;;;;;;5010750;28;20108;-70
2023/07/22 01:44:49;;;;;;;22.88;13.15;;;;;;;;;;5010165;28;20045;-70
2023/07/22 01:47:15;;;;;;;20.17;13.68;;;;;;;;;;5010322;28;20033;-70
2023/07/22 01:49:41;;;;;;;22.45;14.38;;;;;;;;;;5009852;28;20025;-70
2023/07/22 01:52:07;;;;;;;21.80;15.13;;;;;;;;;;5009937;28;20496;-70
2023/07/22 01:54:33;;;;;;;21.65;15.50;;;;;;;;;;5010068;28;20104;-69
2023/07/22 01:56:59;;;;;;;23.33;15.75;;;;;;;;;;5009669;28;20437;-69
2023/07/22 01:59:25;;;;;;;25.10;15.23;;;;;;;;;;5009848;28;20049;-69
2023/07/22 02:01:52;;;;;;;22.80;14.93;;;;;;;;;;5009724;28;20033;-69
2023/07/22 02:04:18;;;;;;;22.65;15.02;;;;;;;;;;5009711;28;20026;-69
2023/07/22 02:06:44;;;;;;;22.23;14.57;;;;;;;;;;5009512;28;20037;-69
2023/07/22 02:09:13;;;;;;;25.42;15.05;;;;;;;;;;5009764;28;20045;-69
2023/07/22 02:11:39;;;;;;;24.42;15.95;;;;;;;;;;5010377;28;20021;-69
2023/07/22 02:14:06;;;;;;;25.05;15.60;;;;;;;;;;5009154;28;20112;-69
2023/07/22 02:16:33;;;;;;;24.70;15.60;;;;;;;;;;5009414;28;20831;-70
2023/07/22 02:18:59;;;;;;;24.13;15.50;;;;;;;;;;5009799;28;20035;-70
2023/07/22 02:21:25;;;;;;;23.48;15.98;;;;;;;;;;5009365;28;20429;-70
2023/07/22 02:23:51;;;;;;;25.15;17.05;;;;;;;;;;5009169;28;20041;-70
2023/07/22 02:26:17;;;;;;;25.42;16.58;;;;;;;;;;5009160;28;20075;-70
2023/07/22 02:28:43;;;;;;;27.42;17.85;;;;;;;;;;4992482;28;20021;-70
2023/07/22 02:31:10;;;;;;;29.80;18.60;;;;;;;;;;4991977;28;20036;-70
2023/07/22 02:33:37;;;;;;;27.33;17.25;;;;;;;;;;5009566;28;20033;-70
2023/07/22 02:36:03;;;;;;;29.00;18.75;;;;;;;;;;5009021;28;20256;-69
2023/07/22 02:38:29;;;;;;;27.58;18.38;;;;;;;;;;5009318;28;20488;-69
2023/07/22 02:40:55;;;;;;;28.27;17.70;;;;;;;;;;5009238;28;20583;-69
2023/07/22 02:43:21;;;;;;;29.75;18.70;;;;;;;;;;5009026;28;20026;-70
2023/07/22 02:45:47;;;;;;;27.52;17.65;;;;;;;;;;5008760;28;20048;-69
2023/07/22 02:48:14;;;;;;;28.85;18.02;;;;;;;;;;5009011;28;20030;-70
2023/07/22 02:50:40;;;;;;;25.98;18.65;;;;;;;;;;5009526;28;20307;-70
2023/07/22 02:53:06;;;;;;;28.27;18.55;;;;;;;;;;5009226;28;20029;-70
2023/07/22 02:55:33;;;;;;;30.92;19.02;;;;;;;;;;5008712;28;20037;-70
2023/07/22 02:57:59;;;;;;;31.65;20.58;;;;;;;;;;5009036;28;20034;-70
2023/07/22 03:00:25;;;;;;;32.25;20.83;;;;;;;;;;5009091;28;20030;-69
2023/07/22 03:02:52;;;;;;;30.30;20.17;;;;;;;;;;5009423;28;20208;-71
2023/07/22 03:05:18;;;;;;;33.05;20.50;;;;;;;;;;5009014;28;20500;-71
2023/07/22 03:07:44;;;;;;;36.42;22.08;;;;;;;;;;5009142;28;20026;-70
2023/07/22 03:10:10;;;;;;;30.27;19.75;;;;;;;;;;5008869;28;20053;-70
2023/07/22 03:12:37;;;;;;;34.30;22.80;;;;;;;;;;5008758;28;20026;-69
2023/07/22 03:15:08;;;;;;;34.17;20.00;;;;;;;;;;5008958;28;20022;-70
2023/07/22 03:17:35;;;;;;;32.17;22.63;;;;;;;;;;5009105;28;20043;-69
2023/07/22 03:20:01;;;;;;;34.65;21.88;;;;;;;;;;5008959;28;20032;-70
2023/07/22 03:22:28;;;;;;;35.65;23.38;;;;;;;;;;5008465;28;20029;-69
2023/07/22 03:24:54;;;;;;;33.60;23.38;;;;;;;;;;5008846;28;20030;-70
2023/07/22 03:27:21;;;;;;;37.30;22.42;;;;;;;;;;4991199;28;20029;-69
2023/07/22 03:29:47;;;;;;;36.97;22.65;;;;;;;;;;5008611;28;20073;-70
2023/07/22 03:32:13;;;;;;;36.63;23.17;;;;;;;;;;5008564;28;20030;-71
2023/07/22 03:34:39;;;;;;;35.00;23.05;;;;;;;;;;5009149;28;20030;-70
2023/07/22 03:37:05;;;;;;;31.25;20.45;;;;;;;;;;5009192;28;20033;-70
2023/07/22 03:39:31;;;;;;;37.83;22.05;;;;;;;;;;5008424;28;20129;-69
2023/07/22 03:41:57;;;;;;;39.13;25.25;;;;;;;;;;5007833;28;20109;-70
2023/07/22 03:44:23;;;;;;;33.80;22.70;;;;;;;;;;5008530;28;20472;-70
2023/07/22 03:46:49;;;;;;;37.50;23.38;;;;;;;;;;5008327;28;20054;-70
2023/07/22 03:49:15;;;;;;;39.22;24.55;;;;;;;;;;5008348;28;20037;-70
2023/07/22 03:51:41;;;;;;;33.22;22.95;;;;;;;;;;5008567;28;20076;-70
2023/07/22 03:54:07;;;;;;;33.22;22.25;;;;;;;;;;5008381;28;20469;-70
2023/07/22 03:56:33;;;;;;;38.40;22.75;;;;;;;;;;5009581;28;20026;-70
2023/07/22 03:58:59;;;;;;;35.20;23.70;;;;;;;;;;5008993;28;20057;-70
2023/07/22 04:01:25;;;;;;;34.10;22.00;;;;;;;;;;5009149;28;20018;-70
2023/07/22 04:03:51;;;;;;;36.33;22.73;;;;;;;;;;5008979;28;20030;-70
2023/07/22 04:06:18;;;;;;;37.95;22.00;;;;;;;;;;5012258;28;20109;-70
2023/07/22 04:08:45;;;;;;;35.88;22.30;;;;;;;;;;4994588;28;20554;-70
2023/07/22 04:11:11;;;;;;;31.55;21.08;;;;;;;;;;5012308;28;20049;-71
2023/07/22 04:13:37;;;;;;;36.28;24.40;;;;;;;;;;5012305;28;20088;-70
2023/07/22 04:16:03;;;;;;;37.50;23.42;;;;;;;;;;5012024;28;20464;-70
2023/07/22 04:18:34;;;;;;;33.35;22.17;;;;;;;;;;5012479;28;20053;-70
2023/07/22 04:21:00;;;;;;;35.85;22.17;;;;;;;;;;5012440;28;20014;-70
2023/07/22 04:23:27;;;;;;;35.88;22.80;;;;;;;;;;5012291;28;20029;-70
2023/07/22 04:25:53;;;;;;;38.65;24.02;;;;;;;;;;5012289;28;20055;-70
2023/07/22 04:28:19;;;;;;;37.65;23.95;;;;;;;;;;5012096;28;20391;-70
2023/07/22 04:30:55;;;;;;;35.85;22.95;;;;;;;;;;4995370;28;20026;-71
2023/07/22 04:33:21;;;;;;;34.80;22.08;;;;;;;;;;4994667;28;20030;-70
2023/07/22 04:35:47;;;;;;;39.40;23.70;;;;;;;;;;4994634;28;20375;-69
2023/07/22 04:38:13;;;;;;;39.20;22.80;;;;;;;;;;5012019;28;20029;-70
2023/07/22 04:40:43;;;;;;;39.38;22.83;;;;;;;;;;5011785;28;20030;-69
2023/07/22 04:43:09;;;;;;;39.90;23.02;;;;;;;;;;5012334;28;20037;-70
2023/07/22 04:45:35;;;;;;;35.30;23.27;;;;;;;;;;5011854;28;20050;-71
2023/07/22 04:48:02;;;;;;;38.60;23.80;;;;;;;;;;5012087;28;20129;-71
2023/07/22 04:50:28;;;;;;;35.55;22.88;;;;;;;;;;5012863;28;20022;-68
2023/07/22 04:52:55;;;;;;;41.15;24.20;;;;;;;;;;5011642;28;20030;-71
2023/07/22 04:55:22;;;;;;;38.03;23.08;;;;;;;;;;5012132;28;20048;-69
2023/07/22 04:57:49;;;;;;;38.28;21.40;;;;;;;;;;5012261;28;20033;-70
2023/07/22 05:00:16;;;;;;;37.72;22.45;;;;;;;;;;5012139;28;20038;-70
2023/07/22 05:02:48;;;;;;;35.90;23.30;;;;;;;;;;5012063;28;20034;-70
2023/07/22 05:05:14;;;;;;;32.65;21.42;;;;;;;;;;5012016;28;20044;-71
2023/07/22 05:07:40;;;;;;;35.55;21.63;;;;;;;;;;5011920;28;20033;-70
2023/07/22 05:10:11;;;;;;;36.53;21.58;;;;;;;;;;5011421;28;20361;-70
2023/07/22 05:12:37;;;;;;;37.83;23.05;;;;;;;;;;4994217;28;20089;-71
2023/07/22 05:15:04;;;;;;;35.10;21.27;;;;;;;;;;4993433;28;20026;-70
2023/07/22 05:17:31;;;;;;;35.53;22.58;;;;;;;;;;5010349;28;20030;-70
2023/07/22 05:19:57;;;;;;;35.03;21.88;;;;;;;;;;5010347;28;20415;-69
2023/07/22 05:22:23;;;;;;;36.22;23.00;;;;;;;;;;5010446;28;20476;-68
2023/07/22 05:24:49;;;;;;;38.03;21.88;;;;;;;;;;5010626;28;20033;-70
2023/07/22 05:27:15;;;;;;;35.17;22.05;;;;;;;;;;5010740;28;20510;-71
2023/07/22 05:29:41;;;;;;;37.58;23.58;;;;;;;;;;5009782;28;20391;-71
2023/07/22 05:32:07;;;;;;;36.97;22.98;;;;;;;;;;5010235;28;20025;-70
2023/07/22 05:34:33;;;;;;;34.45;20.58;;;;;;;;;;5010435;28;20057;-71
2023/07/22 05:36:59;;;;;;;35.92;22.45;;;;;;;;;;5010449;28;20112;-70
2023/07/22 05:39:26;;;;;;;39.55;22.95;;;;;;;;;;5009927;28;20037;-70
2023/07/22 05:41:52;;;;;;;36.00;22.30;;;;;;;;;;5011498;28;20030;-70
2023/07/22 05:44:18;;;;;;;30.30;20.73;;;;;;;;;;5012253;28;20028;-70
2023/07/22 05:46:44;;;;;;;43.20;25.45;;;;;;;;;;5011832;28;20054;-69
2023/07/22 05:49:13;;;;;;;36.00;23.25;;;;;;;;;;5011798;28;20520;-71
2023/07/22 05:51:39;;;;;;;39.53;24.92;;;;;;;;;;5012042;28;20037;-71
2023/07/22 05:54:05;;;;;;;33.70;22.38;;;;;;;;;;5011368;28;20036;-71
2023/07/22 05:56:31;;;;;;;35.72;23.10;;;;;;;;;;4994481;28;20431;-71
2023/07/22 05:58:57;;;;;;;33.42;21.17;;;;;;;;;;4993819;28;20407;-69
2023/07/22 06:01:26;;;;;;;35.53;23.65;;;;;;;;;;5011181;28;20056;-70
2023/07/22 06:03:53;;;;;;;34.67;22.20;;;;;;;;;;5010465;28;20030;-70
2023/07/22 06:06:19;;;;;;;35.72;22.77;;;;;;;;;;5010646;28;20037;-71
2023/07/22 06:08:44;;;;;;;33.95;22.38;;;;;;;;;;5009903;28;20158;-70
2023/07/22 06:11:10;;;;;;;32.05;20.00;;;;;;;;;;5009806;28;20105;-71
2023/07/22 06:13:37;;;;;;;32.45;19.88;;;;;;;;;;5010389;28;20498;-70
2023/07/22 06:16:03;;;;;;;31.20;21.05;;;;;;;;;;5010646;28;20029;-70
2023/07/22 06:18:29;;;;;;;32.78;21.73;;;;;;;;;;5010626;28;20038;-70
2023/07/22 06:20:55;;;;;;;42.55;22.25;;;;;;;;;;5010320;28;20025;-71
2023/07/22 06:23:24;;;;;;;36.92;23.33;;;;;;;;;;5009666;28;20026;-72
2023/07/22 06:25:50;;;;;;;35.85;23.83;;;;;;;;;;5011036;28;20526;-71
2023/07/22 06:28:16;;;;;;;30.77;19.92;;;;;;;;;;4991895;28;20121;-72
2023/07/22 06:30:45;;;;;;;32.95;21.80;;;;;;;;;;4993106;28;20026;-73
2023/07/22 06:33:11;;;;;;;35.20;21.63;;;;;;;;;;5009916;28;20041;-72
2023/07/22 06:35:37;;;;;;;36.33;23.02;;;;;;;;;;5010094;28;20424;-72
2023/07/22 06:38:03;;;;;;;31.75;20.15;;;;;;;;;;4992672;28;20049;-71
2023/07/22 06:40:29;;;;;;;34.75;20.90;;;;;;;;;;5010013;28;20033;-72
2023/07/22 06:42:55;;;;;;;31.45;21.15;;;;;;;;;;5009131;28;20026;-72
2023/07/22 06:45:21;;;;;;;31.15;21.30;;;;;;;;;;5008515;28;20042;-73
2023/07/22 06:47:48;;;;;;;30.75;20.35;;;;;;;;;;5008678;28;20376;-73
2023/07/22 06:50:14;;;;;;;34.30;21.42;;;;;;;;;;4990365;28;20480;-73
2023/07/22 06:52:40;;;;;;;31.15;20.98;;;;;;;;;;5008182;28;20029;-73
2023/07/22 06:55:06;;;;;;;30.20;18.88;;;;;;;;;;5008487;28;20376;-73
2023/07/22 06:57:33;;;;;;;29.85;20.98;;;;;;;;;;5008296;28;20037;-71
2023/07/22 06:59:59;;;;;;;29.17;18.23;;;;;;;;;;4991793;28;20062;-72
2023/07/22 07:02:26;;;;;;;29.20;19.40;;;;;;;;;;5010200;28;20058;-72
2023/07/22 07:04:52;;;;;;;27.60;19.40;;;;;;;;;;5009767;28;20072;-72
2023/07/22 07:07:18;;;;;;;30.95;20.60;;;;;;;;;;4992496;28;20499;-72
2023/07/22 07:09:45;;;;;;;31.48;19.42;;;;;;;;;;4992334;28;20148;-72
2023/07/22 07:12:11;;;;;;;31.20;20.83;;;;;;;;;;5010215;28;20034;-72
2023/07/22 07:14:37;;;;;;;25.90;17.15;;;;;;;;;;5009798;28;20026;-72
2023/07/22 07:17:03;;;;;;;30.95;20.70;;;;;;;;;;4992331;28;20476;-72
2023/07/22 07:19:29;;;;;;;32.15;19.58;;;;;;;;;;5009948;28;20030;-71
2023/07/22 07:21:55;;;;;;;28.73;18.60;;;;;;;;;;5009683;28;20640;-71
2023/07/22 07:24:21;;;;;;;30.02;19.73;;;;;;;;;;5009904;28;20053;-72
2023/07/22 07:26:47;;;;;;;29.70;19.02;;;;;;;;;;5009558;28;20092;-72
2023/07/22 07:29:13;;;;;;;32.55;18.35;;;;;;;;;;5009693;28;20026;-72
2023/07/22 07:31:39;;;;;;;25.77;17.77;;;;;;;;;;5010050;28;20124;-72
2023/07/22 07:34:06;;;;;;;29.70;17.48;;;;;;;;;;5009147;28;20026;-72
2023/07/22 07:36:32;;;;;;;23.90;16.55;;;;;;;;;;5008364;28;20041;-71
2023/07/22 07:38:58;;;;;;;14.02;8.90;;;;;;;;;;5010885;28;20088;-72
2023/07/22 07:41:24;;;;;;;14.15;8.43;;;;;;;;;;5013228;28;20396;-70
2023/07/22 07:43:53;;;;;;;27.90;16.10;;;;;;;;;;5013382;28;20030;-71
2023/07/22 07:46:21;;;;;;;11.90;7.68;;;;;;;;;;5013471;28;20058;-72
2023/07/22 07:48:51;;;;;;;23.23;14.40;;;;;;;;;;4995687;28;20057;-72
2023/07/22 07:51:18;;;;;;;20.85;13.00;;;;;;;;;;5012674;28;20350;-71
2023/07/22 07:53:44;;;;;;;17.92;11.20;;;;;;;;;;5012420;28;20033;-70
2023/07/22 07:56:11;;;;;;;17.13;10.13;;;;;;;;;;5012275;28;20863;-69
2023/07/22 07:58:38;;;;;;;14.90;10.10;;;;;;;;;;5012758;28;20060;-70
2023/07/22 08:01:04;;;;;;;14.93;10.32;;;;;;;;;;4995658;28;20477;-70
2023/07/22 08:03:30;;;;;;;16.75;9.40;;;;;;;;;;5013351;28;20022;-71
2023/07/22 08:05:56;;;;;;;21.38;13.02;;;;;;;;;;5012775;28;20030;-71
2023/07/22 08:08:22;;;;;;;11.93;8.35;;;;;;;;;;5013092;28;20279;-72
2023/07/22 08:10:57;;;;;;;17.33;10.40;;;;;;;;;;4995028;28;20050;-71
2023/07/22 08:13:24;;;;;;;18.02;9.98;;;;;;;;;;5012645;28;20030;-69
2023/07/22 08:15:50;;;;;;;16.90;11.02;;;;;;;;;;5012980;28;20026;-71
2023/07/22 08:18:16;;;;;;;18.77;10.05;;;;;;;;;;5012145;28;20037;-72
2023/07/22 08:20:42;;;;;;;16.77;10.25;;;;;;;;;;5012823;28;20033;-73
2023/07/22 08:23:08;;;;;;;14.45;8.80;;;;;;;;;;4995260;28;20108;-73
2023/07/22 08:25:34;;;;;;;12.60;6.93;;;;;;;;;;5012513;28;20080;-71
2023/07/22 08:28:00;;;;;;;11.15;6.43;;;;;;;;;;5012632;28;20100;-72
2023/07/22 08:30:26;;;;;;;18.90;11.23;;;;;;;;;;5012353;28;20104;-71
2023/07/22 08:32:52;;;;;;;17.30;10.00;;;;;;;;;;4994937;28;20472;-72
2023/07/22 08:35:18;;;;;;;14.50;8.93;;;;;;;;;;5012500;28;20030;-71
2023/07/22 08:37:44;;;;;;;18.85;10.88;;;;;;;;;;5012653;28;20029;-72
2023/07/22 08:40:11;;;;;;;17.65;11.63;;;;;;;;;;5012742;28;20044;-71
2023/07/22 08:42:37;;;;;;;21.02;11.35;;;;;;;;;;5012412;28;20103;-70
2023/07/22 08:45:04;;;;;;;13.48;8.45;;;;;;;;;;5011505;28;20066;-71
2023/07/22 08:47:32;;;;;;;11.48;6.50;;;;;;;;;;5012567;28;20056;-72
2023/07/22 08:50:02;;;;;;;16.83;8.90;;;;;;;;;;5011166;28;20041;-72
2023/07/22 08:52:28;;;;;;;17.85;12.15;;;;;;;;;;5012868;28;20026;-71
2023/07/22 08:54:55;;;;;;;12.23;7.82;;;;;;;;;;5011563;28;20068;-73
2023/07/22 08:57:22;;;;;;;14.70;8.75;;;;;;;;;;5012009;28;20034;-72
2023/07/22 08:59:48;;;;;;;18.92;11.57;;;;;;;;;;5012196;28;20482;-72
2023/07/22 09:02:15;;;;;;;13.70;8.90;;;;;;;;;;5011762;28;20073;-70
2023/07/22 09:04:42;;;;;;;12.95;8.48;;;;;;;;;;5012093;28;20026;-71
2023/07/22 09:07:09;;;;;;;17.73;11.52;;;;;;;;;;5011423;28;20156;-70
2023/07/22 09:09:35;;;;;;;13.82;8.77;;;;;;;;;;5011597;28;20033;-71
2023/07/22 09:12:04;;;;;;;13.18;8.05;;;;;;;;;;5011733;28;20038;-72
2023/07/22 09:14:31;;;;;;;16.75;7.93;;;;;;;;;;5011622;28;20068;-72
2023/07/22 09:16:58;;;;;;;12.43;7.45;;;;;;;;;;5011455;28;20045;-71
2023/07/22 09:19:24;;;;;;;15.95;9.85;;;;;;;;;;5011345;28;20037;-72
2023/07/22 09:21:50;;;;;;;15.93;10.30;;;;;;;;;;5011120;28;20057;-72
2023/07/22 09:24:23;;;;;;;9.90;6.57;;;;;;;;;;4994032;28;20034;-72
2023/07/22 09:26:50;;;;;;;14.50;9.40;;;;;;;;;;5011586;28;20376;-70
2023/07/22 09:29:16;;;;;;;16.42;9.25;;;;;;;;;;5011034;28;20026;-71
2023/07/22 09:31:52;;;;;;;10.60;6.50;;;;;;;;;;5011118;28;20076;-73
2023/07/22 09:34:18;;;;;;;11.52;6.53;;;;;;;;;;5011626;28;20076;-72
2023/07/22 09:36:52;;;;;;;10.32;6.78;;;;;;;;;;5011161;28;20030;-71
2023/07/22 09:39:18;;;;;;;11.43;6.78;;;;;;;;;;5010994;28;20038;-72
2023/07/22 09:41:44;;;;;;;12.07;7.28;;;;;;;;;;4993126;28;20076;-71
2023/07/22 09:44:12;;;;;;;17.23;7.70;;;;;;;;;;5011304;28;20033;-71
2023/07/22 09:46:38;;;;;;;9.50;6.45;;;;;;;;;;5010443;28;20054;-72
2023/07/22 09:49:08;;;;;;;7.18;4.57;;;;;;;;;;5011028;28;20026;-72
2023/07/22 09:51:34;;;;;;;;;;;;;;;;;;5011435;28;20026;-73
2023/07/22 09:54:00;;;;;;;7.35;4.72;;;;;;;;;;5011039;28;19956;-72
2023/07/22 09:56:29;;;;;;;13.43;7.47;;;;;;;;;;5010367;28;20391;-71
2023/07/22 09:58:55;;;;;;;13.10;5.90;;;;;;;;;;5010666;28;20479;-70
2023/07/22 10:01:25;;;;;;;12.20;6.93;;;;;;;;;;5010698;28;20025;-71
2023/07/22 10:03:54;;;;;;;11.40;6.07;;;;;;;;;;5010747;28;20030;-72
2023/07/22 10:06:22;;;;;;;8.93;5.32;;;;;;;;;;5010709;28;20037;-72
2023/07/22 10:08:49;;;;;;;10.18;4.72;;;;;;;;;;5010395;28;20026;-73
2023/07/22 10:11:15;;;;;;;9.60;5.60;;;;;;;;;;5010757;28;20430;-70
2023/07/22 10:13:41;;;;;;;10.30;5.70;;;;;;;;;;5009799;28;20443;-70
2023/07/22 10:16:07;;;;;;;11.55;5.13;;;;;;;;;;5007918;28;20030;-72
2023/07/22 10:18:34;;;;;;;8.40;4.70;;;;;;;;;;4990076;28;20025;-73
2023/07/22 10:21:01;;;;;;;8.85;5.38;;;;;;;;;;5010271;28;20516;-74
2023/07/22 10:23:27;;;;;;;10.73;7.03;;;;;;;;;;4992180;28;20036;-74
2023/07/22 10:25:54;;;;;;;8.80;4.85;;;;;;;;;;5009690;28;20041;-74
2023/07/22 10:28:21;;;;;;;13.18;7.72;;;;;;;;;;5009490;28;20048;-72
2023/07/22 10:30:47;;;;;;;9.20;5.95;;;;;;;;;;5010520;28;20030;-73
2023/07/22 10:33:13;;;;;;;10.80;7.60;;;;;;;;;;5010307;28;20104;-73
2023/07/22 10:35:44;;;;;;;16.98;8.23;;;;;;;;;;5009494;28;20050;-73
2023/07/22 10:38:11;;;;;;;14.95;7.32;;;;;;;;;;5010800;28;20156;-71
2023/07/22 10:40:55;;;;;;;11.60;6.20;;;;;;;;;;5012814;28;20037;-75
2023/07/22 10:43:25;;;;;;;10.20;6.32;;;;;;;;;;5010402;28;20073;-72
2023/07/22 10:45:52;;;;;;;10.77;6.72;;;;;;;;;;5009550;28;20140;-74
2023/07/22 10:48:19;;;;;;;10.85;6.38;;;;;;;;;;5012427;28;20122;-72
2023/07/22 10:50:46;;;;;;;8.82;4.88;;;;;;;;;;5016523;28;20080;-73
2023/07/22 10:53:28;;;;;;;11.07;5.65;;;;;;;;;;5000671;28;20026;-74
2023/07/22 10:56:05;;;;;;;9.68;5.38;;;;;;;;;;5018301;28;20117;-74
2023/07/22 10:58:32;;;;;;;7.97;4.47;;;;;;;;;;5014937;28;20042;-73
2023/07/22 11:01:23;;;;;;;7.63;4.03;;;;;;;;;;5015018;28;20022;-73
2023/07/22 11:04:12;;;;;;;6.65;4.47;;;;;;;;;;4997249;28;20035;-72
2023/07/22 11:06:59;;;;;;;6.55;3.78;;;;;;;;;;5014729;28;20049;-74
2023/07/22 11:09:28;;;;;;;8.15;4.18;;;;;;;;;;5013991;28;20526;-74
2023/07/22 11:12:02;;;;;;;8.57;4.65;;;;;;;;;;5014089;28;20018;-72
2023/07/22 11:14:31;;;;;;;9.85;4.53;;;;;;;;;;5016786;28;20030;-71
2023/07/22 11:16:58;;;;;;;7.63;3.50;;;;;;;;;;5018316;28;20400;-71
2023/07/22 11:19:25;;;;;;;10.32;3.78;;;;;;;;;;5017475;28;20037;-72
2023/07/22 11:21:53;;;;;;;9.25;4.28;;;;;;;;;;5018287;28;20026;-71
2023/07/22 11:24:19;;;;;;;8.27;3.20;;;;;;;;;;5018653;28;20026;-72
2023/07/22 11:26:46;;;;;;;9.07;4.03;;;;;;;;;;5018240;28;20079;-73
2023/07/22 11:29:12;;;;;;;7.85;3.33;;;;;;;;;;5000121;28;20037;-71
2023/07/22 11:31:44;;;;;;;9.93;4.53;;;;;;;;;;5000877;28;20469;-73
2023/07/22 11:34:10;;;;;;;7.45;3.65;;;;;;;;;;5018386;28;20100;-73
2023/07/22 11:36:36;;;;;;;8.05;3.70;;;;;;;;;;5020399;28;20082;-72
2023/07/22 11:39:06;;;;;;;7.65;4.15;;;;;;;;;;5021797;28;20042;-72
2023/07/22 11:41:33;;;;;;;9.43;5.10;;;;;;;;;;5021109;28;20113;-73
2023/07/22 11:44:00;;;;;;;11.02;5.13;;;;;;;;;;5017447;28;20069;-73
2023/07/22 11:46:26;;;;;;;7.55;3.92;;;;;;;;;;5016864;28;20408;-72
2023/07/22 11:48:53;;;;;;;10.90;5.50;;;;;;;;;;5016321;28;20030;-73
2023/07/22 11:51:22;;;;;;;9.00;4.65;;;;;;;;;;5016614;28;20034;-72
2023/07/22 11:53:49;;;;;;;11.30;4.70;;;;;;;;;;5015482;28;20037;-71
2023/07/22 11:56:22;;;;;;;7.47;3.58;;;;;;;;;;4998806;28;20085;-72
2023/07/22 11:58:51;;;;;;;5.68;2.80;;;;;;;;;;5015899;28;20041;-73
2023/07/22 12:01:18;;;;;;;7.43;3.38;;;;;;;;;;5015725;28;20022;-72
2023/07/22 12:03:44;;;;;;;5.80;3.10;;;;;;;;;;5016186;28;20546;-72
2023/07/22 12:06:10;;;;;;;11.18;3.90;;;;;;;;;;4998019;28;20476;-73
2023/07/22 12:08:37;;;;;;;7.82;3.10;;;;;;;;;;5008001;28;20022;-72
2023/07/22 12:11:04;;;;;;;6.03;2.50;;;;;;;;;;4996689;28;20033;-72
2023/07/22 12:13:36;;;;;;;5.28;2.42;;;;;;;;;;5014957;28;20141;-73
2023/07/22 12:16:03;;;;;;;8.57;3.00;;;;;;;;;;4997542;28;20029;-73
2023/07/22 12:18:41;;;;;;;6.15;2.83;;;;;;;;;;5014537;28;20034;-73
2023/07/22 12:21:08;;;;;;;6.75;3.03;;;;;;;;;;5012835;28;20026;-76
2023/07/22 12:23:35;;;;;;;5.07;2.45;;;;;;;;;;5012425;28;20029;-75
2023/07/22 12:26:01;;;;;;;5.82;2.65;;;;;;;;;;5011463;28;20026;-72
2023/07/22 12:28:27;;;;;;;6.32;2.85;;;;;;;;;;5012289;28;20559;-72
2023/07/22 12:30:53;;;;;;;6.72;2.67;;;;;;;;;;5011250;28;20109;-71
2023/07/22 12:33:19;;;;;;;5.40;2.60;;;;;;;;;;5013143;28;20053;-73
2023/07/22 12:35:45;;;;;;;6.07;2.40;;;;;;;;;;5015199;28;20022;-72
2023/07/22 12:38:14;;;;;;;8.68;2.45;;;;;;;;;;5017598;28;20104;-73
2023/07/22 12:40:40;;;;;;;7.40;2.30;;;;;;;;;;5018501;28;20138;-73
2023/07/22 12:43:06;;;;;;;5.35;2.40;;;;;;;;;;5018077;28;20025;-72
2023/07/22 12:45:32;;;;;;;7.07;3.13;;;;;;;;;;4999910;28;20137;-72
2023/07/22 12:47:58;;;;;;;6.28;2.70;;;;;;;;;;4997560;28;20895;-73
2023/07/22 12:50:24;;;;;;;10.63;3.10;;;;;;;;;;5013332;28;20026;-73
2023/07/22 12:52:50;;;;;;;7.28;3.60;;;;;;;;;;5012731;28;20519;-73
2023/07/22 12:55:16;;;;;;;7.05;3.60;;;;;;;;;;5012630;28;20037;-74
2023/07/22 12:57:42;;;;;;;7.07;2.80;;;;;;;;;;5012790;28;20530;-73
2023/07/22 13:00:09;;;;;;;6.05;2.53;;;;;;;;;;4994631;28;20076;-72
2023/07/22 13:02:35;;;;;;;7.68;3.60;;;;;;;;;;5012749;28;20026;-72
2023/07/22 13:05:01;;;;;;;8.70;3.70;;;;;;;;;;5013005;28;20349;-73
2023/07/22 13:07:30;;;;;;;6.80;3.08;;;;;;;;;;5014650;28;20117;-74
2023/07/22 13:10:00;;;;;;;9.57;3.20;;;;;;;;;;5015551;28;20029;-73
2023/07/22 13:12:26;;;;;;;7.03;3.47;;;;;;;;;;5013319;28;20026;-72
2023/07/22 13:14:52;;;;;;;6.32;2.38;;;;;;;;;;5015642;28;20034;-73
2023/07/22 13:17:18;;;;;;;5.43;2.10;;;;;;;;;;5014302;28;20728;-74
2023/07/22 13:19:44;;;;;;;4.90;2.45;;;;;;;;;;5014478;28;20057;-73
2023/07/22 13:22:11;;;;;;;9.77;4.57;;;;;;;;;;5014332;28;20060;-72
2023/07/22 13:24:37;;;;;;;4.90;2.40;;;;;;;;;;5012714;28;20429;-73
2023/07/22 13:27:03;;;;;;;6.38;2.83;;;;;;;;;;4995306;28;20061;-72
2023/07/22 13:29:30;;;;;;;5.07;2.33;;;;;;;;;;5012684;28;20045;-72
2023/07/22 13:31:56;;;;;;;6.22;2.70;;;;;;;;;;5010935;28;20032;-73
2023/07/22 13:34:22;;;;;;;6.93;2.63;;;;;;;;;;5011297;28;20105;-73
2023/07/22 13:36:48;;;;;;;7.85;3.10;;;;;;;;;;5009865;28;20030;-74
2023/07/22 13:39:14;;;;;;;3.63;1.92;;;;;;;;;;4992553;28;20049;-72
2023/07/22 13:41:40;;;;;;;6.50;2.75;;;;;;;;;;4992813;28;20463;-74
2023/07/22 13:44:07;;;;;;;6.45;2.10;;;;;;;;;;5010340;28;20025;-72
2023/07/22 13:46:33;;;;;;;5.15;2.00;;;;;;;;;;5010458;28;20443;-74
2023/07/22 13:48:59;;;;;;;10.32;3.53;;;;;;;;;;5010386;28;20021;-75
2023/07/22 13:51:25;;;;;;;5.32;2.65;;;;;;;;;;5010566;28;20154;-75
2023/07/22 13:53:58;;;;;;;4.00;1.95;;;;;;;;;;5010825;28;20025;-75
2023/07/22 13:56:24;;;;;;;7.25;2.60;;;;;;;;;;5010721;28;20029;-74
2023/07/22 13:58:50;;;;;;;5.15;2.05;;;;;;;;;;5010072;28;20033;-76
2023/07/22 14:01:16;;;;;;;4.43;1.92;;;;;;;;;;5010019;28;20116;-73
2023/07/22 14:03:42;;;;;;;4.50;2.05;;;;;;;;;;5010329;28;20037;-75
2023/07/22 14:06:08;;;;;;;6.55;2.08;;;;;;;;;;5010233;28;20400;-75
2023/07/22 14:08:35;;;;;;;6.45;2.45;;;;;;;;;;5009874;28;20036;-76
2023/07/22 14:11:01;;;;;;;6.88;2.35;;;;;;;;;;5010636;28;20028;-75
2023/07/22 14:13:27;;;;;;;5.35;2.30;;;;;;;;;;5009709;28;20029;-76
2023/07/22 14:15:53;;;;;;;6.68;2.60;;;;;;;;;;5009969;28;20033;-76
2023/07/22 14:18:19;;;;;;;5.00;2.55;;;;;;;;;;5009959;28;20022;-73
2023/07/22 14:20:45;;;;;;;5.25;2.50;;;;;;;;;;5009349;28;20464;-75
2023/07/22 14:23:11;;;;;;;7.70;2.97;;;;;;;;;;5009671;28;20038;-74
2023/07/22 14:25:38;;;;;;;5.05;2.90;;;;;;;;;;5009776;28;20022;-73